createdAt,value
2022-09-09T00:01:32.641Z,16.50
2022-09-09T00:04:30.510Z,16.70
2022-09-09T00:07:29.805Z,16.80
2022-09-09T00:10:23.565Z,16.70
2022-09-09T00:13:25.035Z,16.30
2022-09-09T00:16:11.580Z,16.30
2022-09-09T00:19:07.828Z,16.40
2022-09-09T00:22:01.511Z,16.40
2022-09-09T00:24:52.174Z,16.40
2022-09-09T00:27:51.651Z,16.50
2022-09-09T00:30:43.554Z,16.50
2022-09-09T00:33:27.885Z,16.50
2022-09-09T00:36:23.609Z,16.50
2022-09-09T00:39:08.803Z,16.50
2022-09-09T00:42:20.536Z,16.70
2022-09-09T00:45:27.558Z,16.90
2022-09-09T00:48:19.675Z,16.90
2022-09-09T00:51:05.544Z,16.90
2022-09-09T00:54:16.693Z,16.80
2022-09-09T00:57:27.633Z,16.90
2022-09-09T01:00:28.819Z,16.80
2022-09-09T01:03:33.574Z,16.70
2022-09-09T01:06:24.812Z,16.80
2022-09-09T01:09:34.526Z,16.80
2022-09-09T01:12:33.854Z,16.60
2022-09-09T01:15:21.601Z,16.70
2022-09-09T01:18:15.426Z,16.80
2022-09-09T01:21:07.581Z,16.90
2022-09-09T01:24:28.857Z,16.90
2022-09-09T01:27:36.668Z,16.90
2022-09-09T01:30:26.762Z,16.90
2022-09-09T01:33:16.563Z,16.80
2022-09-09T01:36:09.781Z,16.80
2022-09-09T01:39:03.616Z,16.80
2022-09-09T01:41:52.041Z,16.70
2022-09-09T01:44:43.579Z,16.70
2022-09-09T01:47:31.717Z,16.70
2022-09-09T01:50:26.568Z,16.60
2022-09-09T01:53:17.038Z,16.60
2022-09-09T01:56:20.570Z,16.70
2022-09-09T01:59:13.826Z,16.70
2022-09-09T02:02:20.631Z,16.90
2022-09-09T02:05:26.936Z,16.90
2022-09-09T02:08:21.572Z,16.70
2022-09-09T02:11:14.958Z,16.80
2022-09-09T02:14:18.668Z,16.70
2022-09-09T02:17:14.756Z,16.80
2022-09-09T02:20:13.644Z,16.90
2022-09-09T02:23:13.865Z,16.90
2022-09-09T02:26:00.584Z,16.80
2022-09-09T02:28:49.860Z,16.80
2022-09-09T02:31:32.644Z,16.80
2022-09-09T02:34:28.771Z,16.90
2022-09-09T02:37:19.622Z,17.00
2022-09-09T02:40:02.711Z,17.00
2022-09-09T02:42:58.692Z,17.10
2022-09-09T02:45:52.971Z,17.00
2022-09-09T02:48:45.594Z,17.20
2022-09-09T02:51:43.050Z,17.20
2022-09-09T02:54:43.666Z,17.20
2022-09-09T02:57:43.690Z,17.10
2022-09-09T03:00:36.628Z,16.90
2022-09-09T03:03:18.789Z,16.90
2022-09-09T03:06:07.641Z,17.20
2022-09-09T03:08:53.479Z,17.30
2022-09-09T03:11:43.600Z,17.10
2022-09-09T03:14:26.883Z,17.20
2022-09-09T03:17:22.629Z,17.20
2022-09-09T03:20:11.780Z,17.00
2022-09-09T03:23:00.677Z,17.10
2022-09-09T03:25:58.143Z,17.10
2022-09-09T03:28:54.686Z,17.10
2022-09-09T03:31:44.189Z,17.10
2022-09-09T03:34:32.604Z,17.10
2022-09-09T03:37:21.900Z,17.10
2022-09-09T03:40:10.640Z,17.00
2022-09-09T03:42:55.772Z,17.00
2022-09-09T03:45:43.754Z,17.20
2022-09-09T03:48:25.994Z,17.10
2022-09-09T03:51:15.614Z,17.10
2022-09-09T03:53:59.141Z,17.00
2022-09-09T03:56:53.626Z,17.00
2022-09-09T03:59:37.022Z,16.80
2022-09-09T04:02:31.659Z,16.80
2022-09-09T04:05:19.991Z,16.90
2022-09-09T04:08:08.697Z,16.90
2022-09-09T04:10:59.160Z,17.00
2022-09-09T04:13:48.593Z,17.00
2022-09-09T04:16:38.901Z,17.10
2022-09-09T04:19:27.596Z,17.10
2022-09-09T04:22:17.046Z,17.10
2022-09-09T04:24:58.598Z,17.10
2022-09-09T04:27:46.866Z,17.00
2022-09-09T04:30:28.653Z,17.10
2022-09-09T04:33:19.934Z,17.00
2022-09-09T04:36:01.661Z,17.00
2022-09-09T04:38:50.398Z,17.00
2022-09-09T04:41:31.631Z,17.10
2022-09-09T04:44:19.834Z,17.00
2022-09-09T04:47:02.640Z,16.90
2022-09-09T04:49:54.530Z,16.90
2022-09-09T04:52:43.675Z,17.10
2022-09-09T04:55:32.261Z,17.00
2022-09-09T04:58:26.655Z,17.00
2022-09-09T05:01:16.707Z,17.20
2022-09-09T05:04:00.844Z,17.30
2022-09-09T05:06:50.758Z,17.40
2022-09-09T05:09:32.772Z,17.30
2022-09-09T05:12:27.648Z,17.30
2022-09-09T05:15:17.780Z,17.30
2022-09-09T05:18:06.640Z,17.40
2022-09-09T05:20:54.880Z,17.40
2022-09-09T05:23:51.761Z,17.40
2022-09-09T05:26:39.855Z,17.50
2022-09-09T05:29:28.640Z,17.70
2022-09-09T05:32:18.908Z,17.40
2022-09-09T05:35:01.707Z,17.50
2022-09-09T05:37:49.990Z,17.40
2022-09-09T05:40:32.641Z,17.50
2022-09-09T05:43:27.636Z,17.50
2022-09-09T05:46:17.889Z,17.60
2022-09-09T05:49:08.665Z,17.50
2022-09-09T05:51:51.725Z,17.40
2022-09-09T05:54:40.652Z,17.40
2022-09-09T05:57:37.681Z,17.20
2022-09-09T06:00:26.659Z,17.40
2022-09-09T06:03:09.006Z,17.40
2022-09-09T06:06:05.640Z,17.40
2022-09-09T06:08:50.066Z,17.30
2022-09-09T06:11:39.664Z,17.40
2022-09-09T06:14:24.089Z,17.40
2022-09-09T06:17:20.662Z,17.50
2022-09-09T06:20:10.374Z,17.70
2022-09-09T06:22:58.713Z,17.70
2022-09-09T06:25:47.027Z,17.80
2022-09-09T06:28:35.822Z,17.80
2022-09-09T06:31:30.088Z,17.90
2022-09-09T06:34:27.677Z,17.90
2022-09-09T06:37:16.624Z,18.00
2022-09-09T06:39:59.678Z,18.20
2022-09-09T06:42:47.941Z,18.20
2022-09-09T06:45:43.729Z,18.20
2022-09-09T06:48:33.845Z,18.10
2022-09-09T06:51:18.745Z,18.00
2022-09-09T06:54:08.905Z,17.90
2022-09-09T06:57:20.806Z,17.90
2022-09-09T07:00:10.529Z,17.90
2022-09-09T07:03:06.684Z,17.90
2022-09-09T07:06:05.129Z,18.10
2022-09-09T07:08:56.463Z,18.20
2022-09-09T07:11:47.929Z,18.30
2022-09-09T07:14:40.725Z,18.30
2022-09-09T07:17:29.245Z,18.30
2022-09-09T07:20:11.658Z,18.40
2022-09-09T07:23:04.190Z,18.50
2022-09-09T07:25:45.695Z,18.50
2022-09-09T07:28:35.631Z,18.60
2022-09-09T07:31:23.795Z,18.30
2022-09-09T07:34:20.876Z,18.30
2022-09-09T07:37:10.044Z,18.40
2022-09-09T07:39:54.784Z,18.10
2022-09-09T07:42:44.863Z,18.20
2022-09-09T07:45:26.789Z,18.30
2022-09-09T07:48:15.451Z,18.30
2022-09-09T07:50:56.834Z,18.20
2022-09-09T07:53:45.867Z,18.10
2022-09-09T07:56:43.690Z,18.00
2022-09-09T07:59:31.961Z,18.00
2022-09-09T08:02:21.734Z,18.00
2022-09-09T08:05:10.184Z,18.10
2022-09-09T08:07:59.725Z,18.00
2022-09-09T08:10:48.732Z,17.90
2022-09-09T08:13:32.537Z,17.90
2022-09-09T08:16:23.809Z,17.90
2022-09-09T08:19:07.551Z,17.90
2022-09-09T08:21:56.790Z,18.00
2022-09-09T08:24:40.326Z,18.30
2022-09-09T08:27:34.814Z,18.40
2022-09-09T08:30:24.998Z,18.40
2022-09-09T08:33:13.716Z,18.70
2022-09-09T08:35:57.101Z,18.90
2022-09-09T08:38:45.787Z,19.00
2022-09-09T08:41:55.003Z,19.10
2022-09-09T08:44:59.757Z,19.10
2022-09-09T08:48:00.795Z,19.10
2022-09-09T08:50:50.007Z,19.00
2022-09-09T08:53:45.731Z,18.90
2022-09-09T08:56:42.740Z,18.80
2022-09-09T08:59:37.717Z,18.70
2022-09-09T09:02:32.010Z,18.70
2022-09-09T09:05:27.795Z,18.70
2022-09-09T09:08:25.007Z,18.70
2022-09-09T09:11:08.731Z,18.70
2022-09-09T09:14:03.784Z,18.60
2022-09-09T09:16:52.799Z,18.50
2022-09-09T09:19:47.768Z,18.70
2022-09-09T09:22:51.951Z,18.50
2022-09-09T09:25:43.748Z,18.50
2022-09-09T09:28:33.908Z,18.60
2022-09-09T09:31:23.163Z,18.60
2022-09-09T09:34:11.832Z,18.70
2022-09-09T09:37:04.015Z,18.50
2022-09-09T09:40:09.040Z,18.60
2022-09-09T09:42:59.973Z,18.40
2022-09-09T09:46:13.938Z,18.40
2022-09-09T09:49:06.531Z,18.30
2022-09-09T09:51:55.824Z,18.50
2022-09-09T09:54:42.485Z,18.40
2022-09-09T09:57:42.741Z,18.50
2022-09-09T10:00:32.027Z,18.50
2022-09-09T10:03:39.810Z,18.50
2022-09-09T10:06:40.964Z,18.60
2022-09-09T10:09:40.761Z,18.70
2022-09-09T10:12:39.000Z,18.70
2022-09-09T10:15:38.784Z,18.80
2022-09-09T10:18:44.000Z,18.70
2022-09-09T10:21:36.873Z,18.70
2022-09-09T10:24:56.986Z,18.60
2022-09-09T10:27:59.011Z,18.70
2022-09-09T10:30:56.487Z,18.70
2022-09-09T10:33:53.014Z,18.70
2022-09-09T10:36:41.018Z,18.70
2022-09-09T10:39:45.874Z,18.70
2022-09-09T10:42:40.001Z,18.70
2022-09-09T10:45:27.797Z,19.00
2022-09-09T10:48:38.244Z,19.20
2022-09-09T10:51:31.773Z,19.20
2022-09-09T10:54:41.306Z,19.20
2022-09-09T10:57:43.813Z,19.40
2022-09-09T11:00:40.036Z,19.50
2022-09-09T11:03:34.912Z,19.40
2022-09-09T11:06:29.201Z,19.30
2022-09-09T11:09:17.799Z,19.40
2022-09-09T11:12:14.168Z,19.70
2022-09-09T11:15:02.757Z,19.80
2022-09-09T11:17:57.780Z,19.80
2022-09-09T11:20:39.772Z,19.70
2022-09-09T11:23:35.343Z,19.70
2022-09-09T11:26:24.778Z,19.90
2022-09-09T11:29:40.031Z,20.00
2022-09-09T11:32:47.865Z,20.10
2022-09-09T11:35:47.995Z,20.10
2022-09-09T11:38:42.897Z,20.10
2022-09-09T11:41:30.997Z,20.00
2022-09-09T11:44:26.815Z,19.90
2022-09-09T11:47:37.780Z,19.90
2022-09-09T11:50:33.842Z,19.70
2022-09-09T11:53:35.793Z,19.60
2022-09-09T11:56:44.864Z,19.60
2022-09-09T11:59:41.804Z,19.80
2022-09-09T12:02:33.165Z,19.70
2022-09-09T12:05:17.993Z,19.60
2022-09-09T12:08:09.017Z,19.60
2022-09-09T12:11:01.823Z,19.60
2022-09-09T12:14:08.857Z,19.60
2022-09-09T12:16:57.110Z,19.70
2022-09-09T12:19:44.793Z,19.60
2022-09-09T12:22:41.224Z,19.60
2022-09-09T12:25:35.801Z,19.60
2022-09-09T12:28:27.071Z,19.70
2022-09-09T12:31:14.839Z,19.70
2022-09-09T12:34:02.963Z,19.70
2022-09-09T12:36:46.261Z,19.60
2022-09-09T12:39:43.229Z,19.80
2022-09-09T12:42:41.026Z,20.00
2022-09-09T12:45:31.266Z,20.10
2022-09-09T12:48:24.828Z,20.20
2022-09-09T12:51:16.053Z,20.30
2022-09-09T12:54:04.799Z,20.60
2022-09-09T12:57:02.831Z,20.80
2022-09-09T12:59:53.868Z,20.90
2022-09-09T13:02:36.654Z,20.90
2022-09-09T13:05:28.810Z,20.90
2022-09-09T13:08:11.449Z,20.70
2022-09-09T13:11:04.847Z,20.70
2022-09-09T13:13:49.247Z,20.80
2022-09-09T13:16:43.154Z,20.80
2022-09-09T13:19:28.839Z,20.80
2022-09-09T13:22:27.936Z,20.80
2022-09-09T13:25:29.063Z,20.80
2022-09-09T13:28:18.924Z,20.90
2022-09-09T13:31:09.084Z,20.90
2022-09-09T13:34:05.850Z,20.90
2022-09-09T13:36:59.880Z,20.90
2022-09-09T13:39:41.930Z,20.90
2022-09-09T13:42:37.182Z,21.10
2022-09-09T13:45:28.889Z,21.10
2022-09-09T13:48:20.093Z,21.20
2022-09-09T13:51:07.880Z,21.20
2022-09-09T13:53:56.095Z,21.20
2022-09-09T13:56:37.830Z,21.20
2022-09-09T14:02:51.947Z,21.30
2022-09-09T14:05:43.259Z,21.30
2022-09-09T14:08:44.908Z,21.40
2022-09-09T14:11:34.104Z,21.50
2022-09-09T14:14:22.828Z,21.60
2022-09-09T14:17:17.878Z,21.60
2022-09-09T14:20:08.913Z,21.80
2022-09-09T14:23:01.498Z,21.80
2022-09-09T14:25:53.144Z,21.70
2022-09-09T14:28:55.438Z,21.70
2022-09-09T14:31:44.837Z,21.50
2022-09-09T14:34:27.059Z,21.20
2022-09-09T14:37:21.886Z,21.20
2022-09-09T14:40:10.901Z,21.20
2022-09-09T14:42:54.404Z,21.30
2022-09-09T14:45:45.920Z,21.40
2022-09-09T14:48:41.556Z,21.50
2022-09-09T14:51:30.887Z,21.40
2022-09-09T14:54:13.139Z,21.20
2022-09-09T14:57:08.980Z,21.20
2022-09-09T14:59:59.092Z,21.00
2022-09-09T15:02:47.911Z,20.90
2022-09-09T15:05:36.677Z,20.90
2022-09-09T15:08:24.868Z,20.80
2022-09-09T15:11:15.209Z,20.80
2022-09-09T15:14:07.948Z,20.90
2022-09-09T15:16:58.140Z,21.10
2022-09-09T15:19:39.851Z,21.20
2022-09-09T15:22:28.114Z,21.20
2022-09-09T15:25:17.883Z,21.20
2022-09-09T15:27:59.407Z,21.20
2022-09-09T15:30:46.927Z,21.30
2022-09-09T15:33:31.080Z,21.40
2022-09-09T15:36:23.877Z,21.20
2022-09-09T15:39:06.143Z,21.20
2022-09-09T15:41:55.883Z,21.20
2022-09-09T15:44:37.106Z,21.20
2022-09-09T15:47:32.032Z,21.10
2022-09-09T15:50:22.797Z,21.00
2022-09-09T15:53:13.974Z,21.10
2022-09-09T15:56:04.066Z,21.10
2022-09-09T15:58:52.962Z,21.20
2022-09-09T16:01:41.844Z,21.40
2022-09-09T16:04:31.958Z,21.30
2022-09-09T16:07:22.189Z,21.30
2022-09-09T16:10:03.915Z,21.30
2022-09-09T16:12:53.928Z,21.20
2022-09-09T16:15:35.890Z,21.30
2022-09-09T16:18:24.387Z,21.10
2022-09-09T16:21:05.911Z,21.10
2022-09-09T16:23:56.294Z,21.10
2022-09-09T16:26:38.955Z,21.10
2022-09-09T16:29:28.312Z,21.00
2022-09-09T16:32:17.950Z,21.10
2022-09-09T16:35:06.327Z,21.10
2022-09-09T16:37:54.893Z,20.90
2022-09-09T16:40:45.167Z,20.60
2022-09-09T16:43:33.967Z,20.40
2022-09-09T16:46:25.275Z,20.30
2022-09-09T16:49:15.021Z,20.10
2022-09-09T16:52:07.076Z,20.30
2022-09-09T16:54:48.996Z,20.20
2022-09-09T16:57:45.920Z,20.10
2022-09-09T17:00:34.976Z,20.20
2022-09-09T17:03:28.988Z,20.50
2022-09-09T17:06:22.134Z,20.30
2022-09-09T17:09:10.916Z,20.20
2022-09-09T17:12:02.252Z,20.10
2022-09-09T17:14:44.951Z,19.90
2022-09-09T17:17:33.499Z,20.00
2022-09-09T17:20:16.898Z,20.00
2022-09-09T17:23:05.166Z,20.10
2022-09-09T17:25:46.929Z,20.00
2022-09-09T17:28:35.095Z,19.80
2022-09-09T17:31:19.953Z,19.70
2022-09-09T17:34:09.195Z,19.60
2022-09-09T17:36:50.950Z,19.60
2022-09-09T17:39:33.164Z,19.80
2022-09-09T17:42:27.965Z,19.80
2022-09-09T17:45:17.551Z,19.80
2022-09-09T17:48:11.958Z,19.70
2022-09-09T17:51:00.536Z,19.50
2022-09-09T17:53:52.039Z,19.60
2022-09-09T17:56:41.926Z,19.70
2022-09-09T17:59:32.900Z,19.70
2022-09-09T18:02:21.398Z,19.60
2022-09-09T18:05:03.898Z,19.70
2022-09-09T18:07:53.517Z,19.50
2022-09-09T18:10:34.932Z,19.40
2022-09-09T18:13:23.134Z,19.40
2022-09-09T18:16:04.984Z,19.40
2022-09-09T18:18:53.509Z,19.30
2022-09-09T18:21:38.961Z,19.30
2022-09-09T18:24:29.210Z,19.20
2022-09-09T18:27:17.946Z,19.30
2022-09-09T18:30:06.177Z,19.20
2022-09-09T18:32:54.990Z,19.30
2022-09-09T18:35:44.514Z,19.30
2022-09-09T18:38:33.987Z,19.20
2022-09-09T18:41:23.235Z,19.10
2022-09-09T18:44:13.928Z,19.10
2022-09-09T18:47:03.684Z,19.10
2022-09-09T18:49:45.098Z,19.00
2022-09-09T18:52:33.195Z,19.10
2022-09-09T18:55:16.940Z,19.30
2022-09-09T18:58:11.938Z,19.20
2022-09-09T19:01:01.072Z,19.20
2022-09-09T19:03:44.787Z,19.00
2022-09-09T19:06:36.986Z,18.90
2022-09-09T19:09:20.120Z,18.90
2022-09-09T19:12:16.971Z,18.90
2022-09-09T19:15:05.213Z,19.10
2022-09-09T19:17:54.050Z,19.00
2022-09-09T19:20:42.207Z,18.80
2022-09-09T19:23:37.935Z,18.80
2022-09-09T19:26:26.228Z,18.70
2022-09-09T19:29:16.975Z,18.60
2022-09-09T19:35:09.960Z,18.50
2022-09-09T19:37:58.795Z,18.60
2022-09-09T19:40:43.003Z,18.50
2022-09-09T19:43:32.503Z,18.60
2022-09-09T19:46:17.999Z,18.60
2022-09-09T19:49:07.189Z,18.60
2022-09-09T19:51:49.061Z,18.80
2022-09-09T19:54:37.305Z,18.80
2022-09-09T19:57:25.967Z,18.80
2022-09-09T20:00:22.976Z,18.80
2022-09-09T20:03:20.125Z,18.60
2022-09-09T20:06:09.209Z,18.50
2022-09-09T20:08:59.947Z,18.30
2022-09-09T20:11:49.271Z,18.30
2022-09-09T20:14:39.796Z,18.20
2022-09-09T20:17:28.382Z,18.10
2022-09-09T20:20:11.027Z,18.00
2022-09-09T20:22:59.340Z,17.90
2022-09-09T20:25:44.079Z,17.80
2022-09-09T20:28:32.262Z,18.00
2022-09-09T20:31:15.089Z,17.90
2022-09-09T20:34:06.167Z,18.00
2022-09-09T20:36:50.018Z,18.10
2022-09-09T20:39:38.223Z,17.80
2022-09-09T20:42:26.973Z,17.70
2022-09-09T20:45:22.017Z,17.70
2022-09-09T20:48:04.211Z,17.80
2022-09-09T20:50:53.301Z,17.90
2022-09-09T20:53:36.273Z,18.00
2022-09-09T20:56:25.030Z,18.00
2022-09-09T20:59:21.980Z,17.90
2022-09-09T21:02:18.098Z,17.90
2022-09-09T21:05:01.327Z,17.90
2022-09-09T21:07:50.970Z,17.80
2022-09-09T21:10:43.970Z,17.90
2022-09-09T21:13:33.077Z,17.90
2022-09-09T21:16:19.538Z,17.90
2022-09-09T21:19:08.005Z,17.90
2022-09-09T21:21:57.194Z,17.80
2022-09-09T21:24:39.096Z,17.70
2022-09-09T21:27:29.682Z,17.70
2022-09-09T21:30:12.009Z,17.70
2022-09-09T21:33:01.600Z,17.50
2022-09-09T21:35:44.025Z,17.40
2022-09-09T21:38:33.222Z,17.50
2022-09-09T21:41:18.988Z,17.50
2022-09-09T21:44:14.241Z,17.60
2022-09-09T21:47:03.116Z,17.70
2022-09-09T21:49:51.205Z,17.70
2022-09-09T21:52:40.086Z,17.60
2022-09-09T21:55:28.267Z,17.80
2022-09-09T21:58:25.010Z,17.60
2022-09-09T22:01:20.019Z,17.70
2022-09-09T22:04:09.032Z,17.70
2022-09-09T22:06:57.211Z,17.80
2022-09-09T22:09:39.099Z,17.70
2022-09-09T22:12:27.663Z,17.70
2022-09-09T22:15:09.011Z,17.80
2022-09-09T22:17:59.454Z,17.60
2022-09-09T22:20:47.132Z,17.60
2022-09-09T22:23:36.451Z,17.70
2022-09-09T22:26:19.097Z,17.70
2022-09-09T22:29:07.374Z,17.80
2022-09-09T22:31:50.072Z,17.80
2022-09-09T22:34:40.319Z,17.70
2022-09-09T22:37:29.089Z,17.70
2022-09-09T22:40:19.523Z,17.70
2022-09-09T22:43:08.023Z,17.60
2022-09-09T22:45:57.080Z,17.70
2022-09-09T22:48:41.251Z,17.70
2022-09-09T22:51:31.165Z,17.80
2022-09-09T22:54:21.868Z,17.80
2022-09-09T22:57:10.113Z,17.90
2022-09-09T23:00:06.122Z,17.70
2022-09-09T23:03:01.022Z,17.80
2022-09-09T23:05:49.269Z,17.80
2022-09-09T23:08:40.153Z,17.80
2022-09-09T23:11:31.692Z,17.60
2022-09-09T23:14:21.253Z,17.80
2022-09-09T23:17:09.669Z,17.80
2022-09-09T23:19:51.031Z,17.80
2022-09-09T23:22:40.590Z,17.90
2022-09-09T23:25:23.186Z,18.00
2022-09-09T23:28:12.199Z,17.90
2022-09-09T23:30:54.158Z,17.90
2022-09-09T23:33:45.613Z,17.70
2022-09-09T23:36:31.241Z,17.80
2022-09-09T23:39:20.422Z,17.80
2022-09-09T23:42:14.053Z,17.80
2022-09-09T23:45:02.370Z,17.80
2022-09-09T23:47:51.245Z,17.90
2022-09-09T23:50:39.253Z,17.80
2022-09-09T23:53:28.046Z,17.70
2022-09-09T23:56:16.481Z,17.90
2022-09-09T23:59:09.066Z,18.00
